Time;durP1;ratioP1;P1;durP2;ratioP2;P2;SDS_P1;SDS_P2;PMS_P1;PMS_P2;Temp;Humidity;BMP_temperature;BMP_pressure;BME280_temperature;BME280_humidity;BME280_pressure;Samples;Min_cycle;Max_cycle;Signal;HPM_P1;HPM_P2
2022/07/03 00:01:19;;;;;;;8.82;5.40;;;;;;;;;;5052645;28;20049;-69
2022/07/03 00:03:45;;;;;;;16.73;5.82;;;;;;;;;;5052522;28;20423;-70
2022/07/03 00:06:11;;;;;;;8.68;5.60;;;;;;;;;;5052660;28;20037;-71
2022/07/03 00:08:37;;;;;;;7.80;5.50;;;;;;;;;;5052258;28;20110;-69
2022/07/03 10:22:48;;;;;;;5.75;5.30;;;;;;;;;;5029831;28;20096;-71
2022/07/03 10:25:14;;;;;;;5.70;5.30;;;;;;;;;;5031992;28;20072;-72
2022/07/03 10:27:40;;;;;;;5.60;5.10;;;;;;;;;;5031250;28;20048;-72
2022/07/03 10:30:06;;;;;;;5.85;5.18;;;;;;;;;;5047071;28;20049;-72
2022/07/03 10:32:32;;;;;;;5.30;5.00;;;;;;;;;;5028636;28;20057;-72
2022/07/03 10:34:59;;;;;;;5.03;4.72;;;;;;;;;;5046673;28;20202;-71
2022/07/03 10:37:25;;;;;;;7.22;4.75;;;;;;;;;;5046895;28;20606;-72
2022/07/03 10:44:45;;;;;;;6.10;4.85;;;;;;;;;;5045091;28;20072;-73
2022/07/03 10:45:31;;;;;;;8.27;4.65;;;;;;;;;;5048735;28;20041;-71
2022/07/03 10:47:57;;;;;;;4.90;4.60;;;;;;;;;;5049463;28;20041;-70
2022/07/03 10:50:24;;;;;;;5.78;5.22;;;;;;;;;;5049652;28;20423;-72
2022/07/03 10:52:50;;;;;;;5.97;4.90;;;;;;;;;;5049699;28;20052;-72
2022/07/03 10:55:16;;;;;;;5.32;4.88;;;;;;;;;;5049506;28;20045;-71
2022/07/03 10:57:43;;;;;;;5.10;4.80;;;;;;;;;;5049597;28;20100;-71
2022/07/03 11:00:10;;;;;;;5.30;4.82;;;;;;;;;;5049248;28;20053;-73
2022/07/03 11:02:40;;;;;;;5.22;4.82;;;;;;;;;;5049487;28;20039;-71
2022/07/03 11:05:13;;;;;;;5.30;4.90;;;;;;;;;;5031508;28;20056;-73
2022/07/03 11:07:42;;;;;;;4.90;4.50;;;;;;;;;;5050037;28;20519;-71
2022/07/03 11:10:09;;;;;;;5.13;4.80;;;;;;;;;;5049377;28;20067;-70
2022/07/03 11:12:54;;;;;;;6.60;4.90;;;;;;;;;;5031734;28;20041;-72
2022/07/03 11:15:38;;;;;;;9.38;5.10;;;;;;;;;;5031992;28;20047;-72
2022/07/03 11:20:53;;;;;;;5.40;5.00;;;;;;;;;;5049349;28;20049;-71
2022/07/03 11:23:23;;;;;;;5.38;4.90;;;;;;;;;;5011433;28;20108;-72
2022/07/03 11:25:53;;;;;;;4.82;4.53;;;;;;;;;;5050935;28;20037;-72
2022/07/03 11:28:31;;;;;;;5.25;4.88;;;;;;;;;;5053639;28;20049;-72
2022/07/03 11:31:16;;;;;;;4.68;4.38;;;;;;;;;;5053062;28;20108;-73
2022/07/03 11:33:42;;;;;;;6.32;5.32;;;;;;;;;;5035457;28;20056;-72
2022/07/03 11:36:11;;;;;;;6.22;4.78;;;;;;;;;;5052965;28;20076;-72
2022/07/03 11:38:37;;;;;;;6.20;5.03;;;;;;;;;;5053307;28;20056;-71
2022/07/03 11:41:06;;;;;;;7.63;5.00;;;;;;;;;;5053014;28;20072;-71
2022/07/03 11:43:32;;;;;;;5.55;5.03;;;;;;;;;;5053287;28;20139;-71
2022/07/03 11:45:58;;;;;;;8.52;4.68;;;;;;;;;;5052896;28;20524;-72
2022/07/03 11:48:25;;;;;;;4.60;4.30;;;;;;;;;;5053073;28;20040;-73
2022/07/03 11:50:51;;;;;;;5.50;5.03;;;;;;;;;;5051478;28;20053;-72
2022/07/03 11:53:21;;;;;;;4.93;4.53;;;;;;;;;;5052735;28;20056;-71
2022/07/03 11:55:47;;;;;;;;;;;;;;;;;;5053407;28;20029;-71
2022/07/03 11:58:13;;;;;;;6.63;4.55;;;;;;;;;;5052744;28;20007;-71
2022/07/03 12:00:39;;;;;;;4.53;4.22;;;;;;;;;;5052689;28;20122;-71
2022/07/03 12:03:05;;;;;;;4.63;4.40;;;;;;;;;;5052480;28;20045;-71
2022/07/03 12:05:31;;;;;;;4.88;4.57;;;;;;;;;;5052567;28;20032;-71
2022/07/03 12:08:03;;;;;;;5.80;4.53;;;;;;;;;;5052205;28;20048;-71
2022/07/03 12:10:36;;;;;;;6.93;4.65;;;;;;;;;;5052467;28;20045;-71
2022/07/03 12:13:03;;;;;;;4.72;4.25;;;;;;;;;;5052418;28;20052;-72
2022/07/03 12:15:28;;;;;;;7.22;4.53;;;;;;;;;;5052194;28;20041;-72
2022/07/03 12:17:55;;;;;;;4.60;4.30;;;;;;;;;;5052311;28;20036;-71
2022/07/03 12:20:21;;;;;;;13.30;4.60;;;;;;;;;;5052102;28;20111;-72
2022/07/03 12:22:46;;;;;;;3.85;3.65;;;;;;;;;;5052661;28;20045;-74
2022/07/03 12:25:12;;;;;;;4.28;3.95;;;;;;;;;;5052152;28;20139;-71
2022/07/03 12:27:40;;;;;;;4.63;4.22;;;;;;;;;;5052470;28;20143;-72
2022/07/03 12:30:06;;;;;;;5.05;4.63;;;;;;;;;;5052013;28;20063;-71
2022/07/03 12:32:32;;;;;;;4.60;4.30;;;;;;;;;;5052275;28;20660;-71
2022/07/03 12:34:58;;;;;;;4.50;4.20;;;;;;;;;;5048614;28;20421;-71
2022/07/03 12:37:31;;;;;;;5.32;4.88;;;;;;;;;;5050034;28;20128;-72
2022/07/03 12:39:57;;;;;;;5.20;4.70;;;;;;;;;;5017734;28;20052;-71
2022/07/03 12:42:23;;;;;;;4.88;4.47;;;;;;;;;;5052074;28;20090;-70
2022/07/03 12:44:59;;;;;;;4.05;3.63;;;;;;;;;;5034432;28;20053;-72
2022/07/03 12:47:25;;;;;;;4.25;3.95;;;;;;;;;;5052518;28;20051;-71
2022/07/03 12:49:58;;;;;;;4.18;3.97;;;;;;;;;;5052438;28;20056;-72
2022/07/03 12:52:24;;;;;;;4.70;4.40;;;;;;;;;;5052118;28;20081;-72
2022/07/03 12:54:50;;;;;;;5.28;4.82;;;;;;;;;;5052017;28;20079;-70
2022/07/03 13:00:07;;;;;;;8.68;7.25;;;;;;;;;;5036636;28;20049;-72
2022/07/03 13:02:33;;;;;;;6.57;4.88;;;;;;;;;;5051654;28;20128;-72
2022/07/03 13:05:00;;;;;;;4.90;4.50;;;;;;;;;;5051553;28;20040;-71
2022/07/03 13:07:30;;;;;;;4.75;4.35;;;;;;;;;;5033690;28;20084;-72
2022/07/03 13:09:55;;;;;;;;;;;;;;;;;;5052048;28;20131;-71
2022/07/03 13:12:22;;;;;;;4.65;4.30;;;;;;;;;;5051419;28;20011;-72
2022/07/03 13:15:15;;;;;;;4.57;4.22;;;;;;;;;;5051537;28;20519;-71
2022/07/03 13:18:07;;;;;;;4.80;4.40;;;;;;;;;;5048750;28;20129;-70
2022/07/03 13:20:33;;;;;;;4.75;4.22;;;;;;;;;;5048051;28;20057;-71
2022/07/03 13:23:00;;;;;;;5.25;4.68;;;;;;;;;;5033482;28;20079;-72
2022/07/03 13:25:26;;;;;;;5.35;4.25;;;;;;;;;;5051207;28;20131;-70
2022/07/03 13:28:02;;;;;;;4.70;4.30;;;;;;;;;;5033742;28;20041;-72
2022/07/03 13:30:28;;;;;;;12.60;4.78;;;;;;;;;;5050985;28;20542;-71
2022/07/03 13:32:54;;;;;;;10.98;4.85;;;;;;;;;;5051144;28;20049;-70
2022/07/03 13:35:20;;;;;;;5.03;4.63;;;;;;;;;;5051052;28;20123;-70
2022/07/03 13:37:46;;;;;;;5.20;4.70;;;;;;;;;;5051059;28;20591;-70
2022/07/03 13:40:12;;;;;;;5.68;4.88;;;;;;;;;;5050778;28;20048;-71
2022/07/03 13:42:38;;;;;;;5.20;4.70;;;;;;;;;;5050715;28;20530;-70
2022/07/03 13:45:04;;;;;;;4.78;4.35;;;;;;;;;;5050674;28;20455;-71
2022/07/03 13:47:30;;;;;;;4.93;4.43;;;;;;;;;;5050415;28;20477;-70
2022/07/03 13:49:56;;;;;;;4.57;4.28;;;;;;;;;;5049947;28;20053;-71
2022/07/03 13:52:22;;;;;;;4.60;4.30;;;;;;;;;;5050225;28;20041;-71
2022/07/03 13:54:48;;;;;;;4.95;4.50;;;;;;;;;;5050401;28;20048;-71
2022/07/03 13:57:14;;;;;;;4.75;4.40;;;;;;;;;;5032361;28;20037;-70
2022/07/03 13:59:40;;;;;;;6.80;4.82;;;;;;;;;;5050539;28;20041;-70
2022/07/03 14:02:06;;;;;;;7.05;6.55;;;;;;;;;;5050168;28;20048;-71
2022/07/03 14:04:32;;;;;;;4.85;4.45;;;;;;;;;;5050580;28;20075;-72
2022/07/03 14:06:57;;;;;;;6.20;4.55;;;;;;;;;;5050434;28;20041;-69
2022/07/03 14:09:24;;;;;;;5.10;4.63;;;;;;;;;;5050307;28;20047;-71
2022/07/03 14:11:50;;;;;;;4.70;4.40;;;;;;;;;;5050228;28;20052;-70
2022/07/03 14:14:16;;;;;;;5.22;4.72;;;;;;;;;;5050083;28;20060;-71
2022/07/03 14:16:42;;;;;;;5.03;4.72;;;;;;;;;;5050148;28;20132;-70
2022/07/03 14:19:08;;;;;;;5.00;4.70;;;;;;;;;;5050410;28;20123;-71
2022/07/03 14:21:34;;;;;;;5.45;5.00;;;;;;;;;;5032433;28;20048;-72
2022/07/03 14:24:00;;;;;;;7.18;5.45;;;;;;;;;;5050212;28;20492;-71
2022/07/03 14:34:40;;;;;;;7.55;4.90;;;;;;;;;;5049914;28;20048;-72
2022/07/03 14:37:06;;;;;;;5.53;4.50;;;;;;;;;;5049433;28;20469;-71
2022/07/03 14:39:32;;;;;;;4.60;4.30;;;;;;;;;;5031710;28;20176;-71
2022/07/03 14:41:58;;;;;;;5.20;4.70;;;;;;;;;;5049603;28;20460;-72
2022/07/03 14:44:25;;;;;;;4.97;4.68;;;;;;;;;;5049519;28;20045;-71
2022/07/03 14:46:52;;;;;;;4.88;4.57;;;;;;;;;;5049515;28;20047;-71
2022/07/03 14:49:18;;;;;;;4.90;4.60;;;;;;;;;;5049354;28;20049;-71
2022/07/03 14:51:44;;;;;;;9.25;4.68;;;;;;;;;;5049430;28;20133;-73
2022/07/03 14:54:10;;;;;;;7.15;4.50;;;;;;;;;;5049360;28;20049;-72
2022/07/03 14:56:40;;;;;;;6.72;4.65;;;;;;;;;;5015264;28;20131;-69
2022/07/03 14:59:07;;;;;;;6.97;4.50;;;;;;;;;;5049213;28;20049;-71
2022/07/03 15:01:34;;;;;;;4.80;4.40;;;;;;;;;;5030817;28;20044;-71
2022/07/03 15:04:01;;;;;;;4.45;4.15;;;;;;;;;;5031562;28;20036;-71
2022/07/03 15:06:27;;;;;;;13.23;4.60;;;;;;;;;;5031246;28;20486;-72
2022/07/03 15:09:03;;;;;;;9.70;4.80;;;;;;;;;;5048927;28;20427;-71
2022/07/03 15:14:23;;;;;;;6.78;4.40;;;;;;;;;;5049077;28;20088;-70
2022/07/03 15:16:50;;;;;;;4.75;3.97;;;;;;;;;;5031470;28;20064;-71
2022/07/03 15:19:16;;;;;;;6.30;4.72;;;;;;;;;;5031308;28;20041;-71
2022/07/03 15:21:42;;;;;;;5.10;4.68;;;;;;;;;;5048939;28;20048;-70
2022/07/03 15:24:08;;;;;;;4.60;4.30;;;;;;;;;;5049071;28;20083;-71
2022/07/03 15:26:35;;;;;;;7.65;4.60;;;;;;;;;;5049059;28;20040;-72
2022/07/03 15:29:01;;;;;;;4.43;4.10;;;;;;;;;;5049212;28;20128;-71
2022/07/03 15:31:28;;;;;;;4.85;4.55;;;;;;;;;;5030901;28;20140;-72
2022/07/03 15:33:55;;;;;;;4.97;4.68;;;;;;;;;;5049073;28;20045;-70
2022/07/03 15:36:22;;;;;;;4.78;4.47;;;;;;;;;;5048772;28;20132;-70
2022/07/03 15:38:50;;;;;;;4.43;4.10;;;;;;;;;;5015122;28;20069;-71
2022/07/03 15:41:20;;;;;;;4.72;4.30;;;;;;;;;;5031102;28;20087;-72
2022/07/03 15:44:09;;;;;;;4.60;4.20;;;;;;;;;;5048948;28;20098;-72
2022/07/03 15:46:37;;;;;;;4.80;4.50;;;;;;;;;;5023284;28;20136;-72
2022/07/03 15:49:21;;;;;;;5.00;4.55;;;;;;;;;;5048741;28;20475;-72
2022/07/03 15:51:53;;;;;;;5.20;4.80;;;;;;;;;;5048683;28;20056;-72
2022/07/03 15:54:24;;;;;;;5.03;4.40;;;;;;;;;;5048743;28;20582;-71
2022/07/03 15:56:50;;;;;;;7.90;4.10;;;;;;;;;;5048811;28;20486;-71
2022/07/03 15:59:16;;;;;;;5.75;4.18;;;;;;;;;;5048686;28;20055;-71
2022/07/03 16:04:54;;;;;;;5.25;4.75;;;;;;;;;;5016926;28;20436;-72
2022/07/03 16:07:20;;;;;;;6.57;4.78;;;;;;;;;;5025667;28;20473;-71
2022/07/03 16:09:46;;;;;;;4.28;3.97;;;;;;;;;;5048819;28;20136;-71
2022/07/03 16:12:20;;;;;;;3.97;3.63;;;;;;;;;;5050393;28;20526;-70
2022/07/03 16:14:49;;;;;;;3.83;3.63;;;;;;;;;;5052471;28;20041;-72
2022/07/03 16:17:15;;;;;;;8.18;3.85;;;;;;;;;;5017861;28;20270;-72
2022/07/03 16:19:41;;;;;;;4.70;3.90;;;;;;;;;;5052318;28;20044;-72
2022/07/03 16:22:07;;;;;;;6.97;3.65;;;;;;;;;;5052201;28;20057;-72
2022/07/03 16:24:33;;;;;;;9.57;5.40;;;;;;;;;;5052133;28;20569;-71
2022/07/03 16:26:59;;;;;;;4.65;4.25;;;;;;;;;;5052191;28;20036;-72
2022/07/03 16:29:25;;;;;;;7.07;5.25;;;;;;;;;;5051988;28;20292;-71
2022/07/03 16:31:51;;;;;;;9.27;5.20;;;;;;;;;;5051822;28;20136;-71
2022/07/03 16:34:23;;;;;;;6.25;5.00;;;;;;;;;;5051869;28;20120;-73
2022/07/03 16:36:49;;;;;;;6.10;4.28;;;;;;;;;;5052036;28;20055;-71
2022/07/03 16:39:18;;;;;;;4.20;3.90;;;;;;;;;;5034182;28;20400;-70
2022/07/03 16:41:43;;;;;;;5.93;4.75;;;;;;;;;;5051887;28;20044;-71
2022/07/03 16:44:10;;;;;;;7.07;5.00;;;;;;;;;;5034078;28;20041;-72
2022/07/03 16:46:36;;;;;;;10.40;6.15;;;;;;;;;;5051417;28;20102;-70
2022/07/03 16:49:03;;;;;;;11.32;5.50;;;;;;;;;;5034116;28;20041;-73
2022/07/03 16:51:30;;;;;;;4.93;4.43;;;;;;;;;;5016963;28;20083;-72
2022/07/03 16:53:56;;;;;;;4.47;4.07;;;;;;;;;;5051692;28;20063;-71
2022/07/03 16:56:22;;;;;;;3.63;3.10;;;;;;;;;;5051124;28;20111;-71
2022/07/03 16:58:49;;;;;;;7.05;4.65;;;;;;;;;;5033654;28;20136;-71
2022/07/03 17:01:15;;;;;;;4.78;4.28;;;;;;;;;;5051338;28;20045;-72
2022/07/03 17:03:41;;;;;;;4.53;3.58;;;;;;;;;;5033424;28;20044;-70
2022/07/03 17:06:07;;;;;;;3.65;3.35;;;;;;;;;;5051497;28;20079;-72
2022/07/03 17:08:33;;;;;;;5.63;3.40;;;;;;;;;;5051165;28;20125;-72
2022/07/03 17:10:58;;;;;;;4.97;3.42;;;;;;;;;;5033459;28;20305;-71
2022/07/03 17:13:24;;;;;;;3.60;2.90;;;;;;;;;;5050989;28;20090;-70
2022/07/03 17:15:51;;;;;;;3.88;3.30;;;;;;;;;;5051526;28;20040;-72
2022/07/03 17:18:17;;;;;;;3.30;3.10;;;;;;;;;;5051056;28;20111;-72
2022/07/03 17:20:43;;;;;;;5.03;3.10;;;;;;;;;;5051165;28;20045;-72
2022/07/03 17:23:09;;;;;;;6.75;3.58;;;;;;;;;;5032520;28;20048;-71
2022/07/03 17:25:40;;;;;;;5.30;3.72;;;;;;;;;;5051125;28;20041;-71
2022/07/03 17:28:06;;;;;;;6.60;4.95;;;;;;;;;;5033583;28;20064;-71
2022/07/03 17:30:32;;;;;;;8.13;4.75;;;;;;;;;;5050898;28;20057;-72
2022/07/03 17:32:59;;;;;;;3.63;3.00;;;;;;;;;;5033132;28;20068;-70
2022/07/03 17:35:25;;;;;;;6.82;2.70;;;;;;;;;;5050771;28;20073;-72
2022/07/03 17:37:51;;;;;;;4.90;2.95;;;;;;;;;;5032858;28;20036;-72
2022/07/03 17:40:17;;;;;;;4.10;2.90;;;;;;;;;;5050763;28;20578;-71
2022/07/03 17:42:43;;;;;;;9.02;4.80;;;;;;;;;;5051202;28;20041;-71
2022/07/03 17:45:10;;;;;;;12.90;7.70;;;;;;;;;;5051269;28;20049;-72
2022/07/03 17:47:36;;;;;;;10.32;4.25;;;;;;;;;;5032744;28;20060;-71
2022/07/03 17:50:02;;;;;;;5.38;3.80;;;;;;;;;;5033033;28;20159;-71
2022/07/03 17:52:29;;;;;;;3.53;3.22;;;;;;;;;;5050336;28;20090;-71
2022/07/03 17:54:55;;;;;;;5.28;4.68;;;;;;;;;;5032941;28;20045;-71
2022/07/03 17:57:37;;;;;;;4.63;3.90;;;;;;;;;;5050395;28;20389;-71
2022/07/03 18:00:09;;;;;;;15.20;7.28;;;;;;;;;;5050527;28;20595;-70
2022/07/03 18:02:36;;;;;;;9.85;5.80;;;;;;;;;;5050062;28;20065;-71
2022/07/03 18:05:03;;;;;;;14.68;6.85;;;;;;;;;;5050674;28;20503;-72
2022/07/03 18:07:41;;;;;;;15.30;7.05;;;;;;;;;;5050203;28;20040;-71
2022/07/03 18:10:09;;;;;;;19.60;8.00;;;;;;;;;;5050302;28;20053;-71
2022/07/03 18:12:43;;;;;;;13.57;6.53;;;;;;;;;;5049914;28;20037;-71
2022/07/03 18:15:15;;;;;;;9.00;4.45;;;;;;;;;;5050338;28;20041;-71
2022/07/03 18:17:43;;;;;;;4.85;4.40;;;;;;;;;;5032246;28;20060;-72
2022/07/03 18:20:09;;;;;;;7.47;4.55;;;;;;;;;;5032240;28;20045;-72
2022/07/03 18:22:36;;;;;;;5.03;3.58;;;;;;;;;;5031968;28;20049;-72
2022/07/03 18:25:04;;;;;;;6.47;3.67;;;;;;;;;;5032322;28;20094;-71
2022/07/03 18:27:32;;;;;;;8.07;3.80;;;;;;;;;;5049751;28;20106;-71
2022/07/03 18:29:58;;;;;;;4.03;3.70;;;;;;;;;;5032575;28;20037;-72
2022/07/03 18:32:24;;;;;;;5.20;3.53;;;;;;;;;;5049782;28;20048;-72
2022/07/03 18:34:50;;;;;;;6.13;3.95;;;;;;;;;;5032131;28;20044;-72
2022/07/03 18:37:17;;;;;;;4.93;3.60;;;;;;;;;;5049907;28;20052;-71
2022/07/03 18:39:43;;;;;;;4.20;3.90;;;;;;;;;;5050116;28;20033;-71
2022/07/03 18:42:09;;;;;;;4.85;3.78;;;;;;;;;;5049931;28;20049;-72
2022/07/03 18:44:35;;;;;;;6.07;4.00;;;;;;;;;;5049808;28;20400;-72
2022/07/03 18:47:02;;;;;;;4.40;4.00;;;;;;;;;;5031997;28;20045;-71
2022/07/03 18:49:28;;;;;;;4.30;3.90;;;;;;;;;;5031754;28;20620;-72
2022/07/03 18:52:03;;;;;;;7.72;4.07;;;;;;;;;;5031725;28;20107;-71
2022/07/03 18:54:30;;;;;;;5.05;3.97;;;;;;;;;;5049972;28;20068;-72
2022/07/03 18:56:56;;;;;;;4.28;3.97;;;;;;;;;;5049509;28;20052;-71
2022/07/03 18:59:22;;;;;;;5.05;4.65;;;;;;;;;;5049562;28;20029;-72
2022/07/03 19:01:49;;;;;;;6.75;4.40;;;;;;;;;;5049446;28;20128;-72
2022/07/03 19:04:35;;;;;;;6.03;4.63;;;;;;;;;;5015815;28;20037;-71
2022/07/03 19:07:06;;;;;;;5.63;4.90;;;;;;;;;;5031933;28;20543;-71
2022/07/03 19:09:34;;;;;;;5.65;4.80;;;;;;;;;;5049492;28;20044;-71
2022/07/03 19:12:02;;;;;;;11.35;7.35;;;;;;;;;;5031508;28;20146;-72
2022/07/03 19:14:31;;;;;;;10.20;6.30;;;;;;;;;;5049353;28;20040;-72
2022/07/03 19:17:00;;;;;;;8.43;6.43;;;;;;;;;;5031663;28;20419;-72
2022/07/03 19:19:26;;;;;;;18.38;9.73;;;;;;;;;;5031548;28;20044;-72
2022/07/03 19:21:53;;;;;;;18.40;9.85;;;;;;;;;;5031252;28;20431;-71
2022/07/03 19:24:19;;;;;;;5.70;5.10;;;;;;;;;;5032392;28;20049;-72
2022/07/03 19:26:45;;;;;;;5.03;4.63;;;;;;;;;;5049987;28;20033;-71
2022/07/03 19:29:11;;;;;;;6.90;5.07;;;;;;;;;;5050023;28;20575;-71
2022/07/03 19:31:37;;;;;;;5.97;4.82;;;;;;;;;;5049096;28;20060;-72
2022/07/03 19:34:03;;;;;;;6.68;5.35;;;;;;;;;;5031891;28;20067;-71
2022/07/03 19:36:29;;;;;;;6.18;5.00;;;;;;;;;;5049063;28;20430;-70
2022/07/03 19:38:55;;;;;;;5.75;5.03;;;;;;;;;;5049324;28;20069;-71
2022/07/03 19:41:21;;;;;;;8.52;5.05;;;;;;;;;;5049075;28;20044;-70
2022/07/03 19:43:47;;;;;;;6.32;5.07;;;;;;;;;;5049173;28;20052;-72
2022/07/03 19:46:13;;;;;;;5.00;4.50;;;;;;;;;;5049850;28;20037;-71
2022/07/03 19:48:39;;;;;;;5.20;4.88;;;;;;;;;;5052811;28;20136;-72
2022/07/03 19:51:05;;;;;;;5.18;4.70;;;;;;;;;;5053141;28;20057;-72
2022/07/03 19:53:32;;;;;;;5.53;5.05;;;;;;;;;;5052750;28;20076;-72
2022/07/03 19:55:58;;;;;;;4.88;4.45;;;;;;;;;;5035232;28;20041;-71
2022/07/03 19:58:24;;;;;;;5.22;4.70;;;;;;;;;;5034969;28;20048;-72
2022/07/03 20:00:50;;;;;;;6.38;4.57;;;;;;;;;;5053094;28;20044;-71
2022/07/03 20:03:17;;;;;;;5.13;4.72;;;;;;;;;;5034986;28;20045;-71
2022/07/03 20:05:43;;;;;;;5.00;4.60;;;;;;;;;;5034737;28;20467;-71
2022/07/03 20:08:09;;;;;;;7.28;4.60;;;;;;;;;;5052782;28;20099;-70
2022/07/03 20:10:35;;;;;;;6.38;5.38;;;;;;;;;;5018504;28;20076;-70
2022/07/03 20:13:01;;;;;;;5.78;4.60;;;;;;;;;;5034769;28;20712;-71
2022/07/03 20:15:27;;;;;;;6.25;4.70;;;;;;;;;;5034844;28;20051;-71
2022/07/03 20:17:55;;;;;;;5.57;4.90;;;;;;;;;;5052670;28;20037;-72
2022/07/03 20:20:23;;;;;;;10.57;5.75;;;;;;;;;;5052530;28;20056;-71
2022/07/03 20:22:50;;;;;;;6.20;4.88;;;;;;;;;;5034626;28;20044;-73
2022/07/03 20:25:16;;;;;;;4.47;4.15;;;;;;;;;;5052538;28;20076;-71
2022/07/03 20:27:42;;;;;;;5.78;4.68;;;;;;;;;;5052593;28;20041;-71
2022/07/03 20:30:08;;;;;;;6.32;5.22;;;;;;;;;;5018334;28;20053;-72
2022/07/03 20:32:34;;;;;;;5.57;5.10;;;;;;;;;;5052495;28;20051;-72
2022/07/03 20:35:00;;;;;;;5.80;4.53;;;;;;;;;;5052504;28;20127;-71
2022/07/03 20:37:27;;;;;;;6.10;5.07;;;;;;;;;;5052148;28;20099;-71
2022/07/03 20:39:53;;;;;;;6.25;5.10;;;;;;;;;;5052323;28;20419;-71
2022/07/03 20:42:19;;;;;;;6.85;5.30;;;;;;;;;;5052592;28;20068;-70
2022/07/03 20:44:45;;;;;;;6.80;5.00;;;;;;;;;;5034568;28;20549;-71
2022/07/03 20:47:11;;;;;;;10.88;5.90;;;;;;;;;;5052236;28;20511;-70
2022/07/03 20:49:37;;;;;;;6.03;5.43;;;;;;;;;;5051947;28;20136;-72
2022/07/03 20:52:03;;;;;;;8.55;7.68;;;;;;;;;;5033971;28;20049;-70
2022/07/03 20:54:31;;;;;;;7.43;6.82;;;;;;;;;;5051752;28;20045;-71
2022/07/03 20:56:57;;;;;;;8.40;6.97;;;;;;;;;;5051856;28;20041;-72
2022/07/03 20:59:23;;;;;;;7.30;5.82;;;;;;;;;;5051944;28;20045;-71
2022/07/03 21:01:49;;;;;;;7.07;6.07;;;;;;;;;;5051319;28;20044;-70
2022/07/03 21:04:15;;;;;;;7.50;5.88;;;;;;;;;;5052158;28;20060;-70
2022/07/03 21:06:41;;;;;;;10.55;6.00;;;;;;;;;;5034443;28;20504;-70
2022/07/03 21:09:07;;;;;;;5.65;5.07;;;;;;;;;;5051724;28;20052;-70
2022/07/03 21:11:40;;;;;;;6.15;5.63;;;;;;;;;;5051264;28;20131;-70
2022/07/03 21:14:10;;;;;;;5.25;4.75;;;;;;;;;;5033839;28;20079;-71
2022/07/03 21:16:36;;;;;;;11.70;5.82;;;;;;;;;;5051520;28;20036;-71
2022/07/03 21:19:03;;;;;;;19.20;7.47;;;;;;;;;;5051429;28;20063;-70
2022/07/03 21:21:29;;;;;;;13.43;7.68;;;;;;;;;;5051122;28;20057;-70
2022/07/03 21:23:55;;;;;;;13.50;7.60;;;;;;;;;;5051098;28;20411;-70
2022/07/03 21:26:21;;;;;;;13.30;6.38;;;;;;;;;;5051480;28;20056;-69
2022/07/03 21:28:47;;;;;;;15.70;5.53;;;;;;;;;;5050884;28;20180;-71
2022/07/03 21:31:13;;;;;;;9.35;6.25;;;;;;;;;;5033511;28;20585;-71
2022/07/03 21:33:39;;;;;;;10.15;6.50;;;;;;;;;;5050988;28;20487;-71
2022/07/03 21:36:05;;;;;;;5.65;5.15;;;;;;;;;;5051296;28;20052;-68
2022/07/03 21:38:31;;;;;;;5.15;4.65;;;;;;;;;;5050865;28;20486;-72
2022/07/03 21:40:57;;;;;;;6.90;5.05;;;;;;;;;;5051134;28;20119;-70
2022/07/03 21:43:23;;;;;;;7.65;6.78;;;;;;;;;;5033215;28;20488;-70
2022/07/03 21:45:49;;;;;;;8.60;7.72;;;;;;;;;;5050851;28;20041;-71
2022/07/03 21:48:15;;;;;;;8.48;7.28;;;;;;;;;;5051060;28;20052;-72
2022/07/03 21:50:41;;;;;;;10.63;7.40;;;;;;;;;;5050948;28;20091;-72
2022/07/03 21:53:07;;;;;;;9.20;6.88;;;;;;;;;;5050980;28;20036;-71
2022/07/03 21:55:33;;;;;;;9.52;5.45;;;;;;;;;;5032706;28;20052;-71
2022/07/03 21:57:59;;;;;;;7.45;6.72;;;;;;;;;;5032810;28;20490;-71
2022/07/03 22:00:25;;;;;;;6.55;5.60;;;;;;;;;;5050733;28;20124;-70
2022/07/03 22:02:51;;;;;;;6.78;5.80;;;;;;;;;;5050188;28;20065;-71
2022/07/03 22:05:17;;;;;;;7.45;6.68;;;;;;;;;;5050676;28;20084;-69
2022/07/03 22:07:43;;;;;;;9.23;6.28;;;;;;;;;;5032455;28;20508;-70
2022/07/03 22:10:09;;;;;;;6.13;5.53;;;;;;;;;;5032166;28;20210;-70
2022/07/03 22:12:36;;;;;;;7.82;6.47;;;;;;;;;;5032491;28;20071;-70
2022/07/03 22:15:08;;;;;;;6.75;4.72;;;;;;;;;;5050667;28;20037;-70
2022/07/03 22:17:35;;;;;;;5.18;4.65;;;;;;;;;;5050299;28;20045;-69
2022/07/03 22:20:01;;;;;;;4.95;4.53;;;;;;;;;;5000098;28;20064;-69
2022/07/03 22:22:29;;;;;;;5.00;4.57;;;;;;;;;;5050278;28;20114;-70
2022/07/03 22:24:55;;;;;;;4.90;4.13;;;;;;;;;;5050470;28;20272;-70
2022/07/03 22:27:21;;;;;;;7.45;4.65;;;;;;;;;;5052104;28;20584;-69
2022/07/03 22:29:47;;;;;;;5.20;4.30;;;;;;;;;;5050801;28;20054;-70
2022/07/03 22:32:15;;;;;;;7.07;4.30;;;;;;;;;;5050725;28;20066;-70
2022/07/03 22:34:44;;;;;;;5.43;4.47;;;;;;;;;;5050088;28;20041;-70
2022/07/03 22:37:10;;;;;;;5.10;4.47;;;;;;;;;;5049966;28;20094;-71
2022/07/03 22:39:36;;;;;;;5.53;5.05;;;;;;;;;;5032050;28;20072;-70
2022/07/03 22:42:02;;;;;;;5.70;5.15;;;;;;;;;;5049906;28;20044;-70
2022/07/03 22:44:28;;;;;;;8.50;6.47;;;;;;;;;;5050014;28;20045;-70
2022/07/03 22:46:54;;;;;;;9.10;5.82;;;;;;;;;;5032131;28;20037;-69
2022/07/03 22:49:19;;;;;;;5.45;5.00;;;;;;;;;;5031947;28;20076;-70
2022/07/03 22:51:45;;;;;;;5.90;5.00;;;;;;;;;;5031879;28;20427;-70
2022/07/03 22:54:11;;;;;;;9.50;6.00;;;;;;;;;;5049653;28;20475;-70
2022/07/03 22:56:37;;;;;;;6.30;5.32;;;;;;;;;;5049456;28;20048;-69
2022/07/03 22:59:03;;;;;;;6.97;6.38;;;;;;;;;;5049566;28;20547;-70
2022/07/03 23:01:29;;;;;;;7.28;6.30;;;;;;;;;;5049906;28;20043;-70
2022/07/03 23:03:56;;;;;;;9.65;6.18;;;;;;;;;;5049071;28;20052;-70
2022/07/03 23:06:21;;;;;;;10.15;6.10;;;;;;;;;;5049708;28;20115;-70
2022/07/03 23:08:47;;;;;;;8.35;6.40;;;;;;;;;;5049198;28;20041;-70
2022/07/03 23:11:13;;;;;;;5.50;5.00;;;;;;;;;;5031669;28;20083;-69
2022/07/03 23:13:39;;;;;;;8.55;5.78;;;;;;;;;;5031492;28;20495;-69
2022/07/03 23:16:05;;;;;;;5.30;4.90;;;;;;;;;;5049646;28;20045;-68
2022/07/03 23:18:31;;;;;;;5.07;4.63;;;;;;;;;;5049384;28;20056;-71
2022/07/03 23:20:57;;;;;;;5.88;4.82;;;;;;;;;;5049100;28;20080;-70
2022/07/03 23:23:23;;;;;;;5.22;4.72;;;;;;;;;;5053568;28;20037;-70
2022/07/03 23:25:49;;;;;;;6.13;5.50;;;;;;;;;;5053411;28;20044;-70
2022/07/03 23:28:15;;;;;;;7.10;4.97;;;;;;;;;;5052019;28;20123;-68
2022/07/03 23:30:41;;;;;;;6.13;5.43;;;;;;;;;;5053266;28;20507;-69
2022/07/03 23:33:07;;;;;;;5.80;4.80;;;;;;;;;;5053434;28;20053;-70
2022/07/03 23:35:33;;;;;;;7.95;5.53;;;;;;;;;;5053418;28;20535;-70
2022/07/03 23:37:59;;;;;;;5.50;5.10;;;;;;;;;;5035133;28;20037;-70
2022/07/03 23:40:25;;;;;;;7.88;5.18;;;;;;;;;;5035492;28;20040;-71
2022/07/03 23:42:51;;;;;;;11.82;5.25;;;;;;;;;;5035003;28;20469;-70
2022/07/03 23:45:17;;;;;;;7.80;5.07;;;;;;;;;;5035582;28;20041;-70
2022/07/03 23:47:43;;;;;;;5.95;5.35;;;;;;;;;;5053059;28;20068;-69
2022/07/03 23:52:54;;;;;;;5.32;4.90;;;;;;;;;;5037717;28;20047;-71
2022/07/03 23:55:20;;;;;;;7.80;6.13;;;;;;;;;;5035295;28;20041;-71
2022/07/03 23:57:46;;;;;;;6.32;5.47;;;;;;;;;;5018343;28;20048;-70
